createdAt,value
2022-11-23T00:00:23.903Z,99743.19
2022-11-23T00:02:56.763Z,99738.31
2022-11-23T00:05:23.821Z,99733.75
2022-11-23T00:07:50.694Z,99734.88
2022-11-23T00:10:17.398Z,99729.75
2022-11-23T00:12:44.202Z,99732.94
2022-11-23T00:15:12.761Z,99733.97
2022-11-23T00:17:39.582Z,99733.88
2022-11-23T00:20:07.579Z,99723.34
2022-11-23T00:22:34.964Z,99727.66
2022-11-23T00:25:01.534Z,99723.97
2022-11-23T00:27:28.064Z,99720.09
2022-11-23T00:29:54.554Z,99719.00
2022-11-23T00:32:21.224Z,99717.72
2022-11-23T00:34:47.703Z,99722.56
2022-11-23T00:37:14.131Z,99719.06
2022-11-23T00:39:40.614Z,99730.94
2022-11-23T00:42:07.051Z,99716.69
2022-11-23T00:44:33.510Z,99720.50
2022-11-23T00:46:59.930Z,99714.75
2022-11-23T00:49:26.400Z,99710.63
2022-11-23T00:51:52.836Z,99714.19
2022-11-23T00:54:19.325Z,99712.81
2022-11-23T00:56:45.755Z,99707.72
2022-11-23T00:59:12.196Z,99713.22
2022-11-23T01:01:38.666Z,99702.22
2022-11-23T01:04:07.127Z,99694.47
2022-11-23T01:06:36.606Z,99700.66
2022-11-23T01:09:17.871Z,99703.16
2022-11-23T01:11:45.157Z,99707.06
2022-11-23T01:14:12.007Z,99706.69
2022-11-23T01:16:40.028Z,99709.03
2022-11-23T01:19:08.673Z,99708.38
2022-11-23T01:21:35.842Z,99714.25
2022-11-23T01:24:07.266Z,99709.31
2022-11-23T01:26:33.792Z,99708.66
2022-11-23T01:29:00.248Z,99715.16
2022-11-23T01:31:27.210Z,99706.59
2022-11-23T01:34:01.352Z,99704.09
2022-11-23T01:36:32.763Z,99707.22
2022-11-23T01:39:00.460Z,99711.19
2022-11-23T01:41:32.728Z,99716.56
2022-11-23T01:43:59.489Z,99720.16
2022-11-23T01:46:26.029Z,99719.38
2022-11-23T01:49:06.976Z,99728.75
2022-11-23T01:51:39.898Z,99734.75
2022-11-23T01:54:22.952Z,99733.38
2022-11-23T01:56:55.984Z,99719.44
2022-11-23T01:59:23.510Z,99720.94
2022-11-23T02:01:49.955Z,99737.47
2022-11-23T02:04:21.284Z,99731.22
2022-11-23T02:06:48.077Z,99733.00
2022-11-23T02:09:16.449Z,99713.41
2022-11-23T02:11:43.319Z,99721.91
2022-11-23T02:14:09.928Z,99711.81
2022-11-23T02:16:37.652Z,99707.31
2022-11-23T02:19:06.975Z,99710.84
2022-11-23T02:21:33.473Z,99706.38
2022-11-23T02:24:12.794Z,99704.13
2022-11-23T02:26:39.415Z,99709.03
2022-11-23T02:29:09.047Z,99710.72
2022-11-23T02:31:36.147Z,99708.25
2022-11-23T02:34:02.867Z,99709.28
2022-11-23T02:36:35.809Z,99709.28
2022-11-23T02:39:16.595Z,99705.88
2022-11-23T02:41:46.165Z,99705.91
2022-11-23T02:44:17.872Z,99701.75
2022-11-23T02:46:44.405Z,99708.78
2022-11-23T02:49:10.882Z,99703.38
2022-11-23T02:51:37.417Z,99703.09
2022-11-23T02:54:04.033Z,99713.19
2022-11-23T02:56:30.473Z,99712.25
2022-11-23T02:58:56.891Z,99716.31
2022-11-23T03:01:23.361Z,99712.25
2022-11-23T03:03:49.816Z,99708.94
2022-11-23T03:06:16.275Z,99710.03
2022-11-23T03:08:42.698Z,99709.16
2022-11-23T03:11:09.161Z,99713.50
2022-11-23T03:13:35.655Z,99719.66
2022-11-23T03:16:02.180Z,99715.94
2022-11-23T03:18:28.764Z,99712.44
2022-11-23T03:20:55.245Z,99717.72
2022-11-23T03:23:21.675Z,99714.38
2022-11-23T03:25:55.867Z,99716.66
2022-11-23T03:28:22.363Z,99712.66
2022-11-23T03:30:48.871Z,99715.91
2022-11-23T03:33:15.315Z,99719.97
2022-11-23T03:35:41.790Z,99706.28
2022-11-23T03:38:08.275Z,99712.59
2022-11-23T03:40:34.874Z,99703.81
2022-11-23T03:43:01.560Z,99712.25
2022-11-23T03:45:28.029Z,99717.41
2022-11-23T03:47:54.455Z,99714.88
2022-11-23T03:50:20.996Z,99725.72
2022-11-23T03:52:50.664Z,99726.63
2022-11-23T03:55:17.311Z,99715.69
2022-11-23T03:57:43.796Z,99713.28
2022-11-23T04:00:10.728Z,99717.44
2022-11-23T04:02:37.169Z,99712.34
2022-11-23T04:05:03.718Z,99714.63
2022-11-23T04:07:30.213Z,99708.69
2022-11-23T04:09:56.744Z,99711.38
2022-11-23T04:12:23.196Z,99711.34
2022-11-23T04:14:49.773Z,99712.69
2022-11-23T04:17:16.232Z,99714.91
2022-11-23T04:19:42.712Z,99715.19
2022-11-23T04:22:09.302Z,99706.25
2022-11-23T04:24:35.761Z,99717.03
2022-11-23T04:27:02.237Z,99714.50
2022-11-23T04:29:28.698Z,99713.78
2022-11-23T04:31:55.148Z,99716.00
2022-11-23T04:34:21.594Z,99716.31
2022-11-23T04:36:48.078Z,99710.91
2022-11-23T04:39:14.698Z,99709.47
2022-11-23T04:41:41.201Z,99713.59
2022-11-23T04:44:07.637Z,99702.84
2022-11-23T04:46:35.655Z,99706.69
2022-11-23T04:49:02.067Z,99715.63
2022-11-23T04:51:28.512Z,99706.59
2022-11-23T04:53:54.939Z,99708.81
2022-11-23T04:56:21.399Z,99703.66
2022-11-23T04:58:47.857Z,99702.16
2022-11-23T05:01:14.428Z,99707.00
2022-11-23T05:03:40.884Z,99699.53
2022-11-23T05:06:07.648Z,99706.84
2022-11-23T05:08:34.087Z,99711.91
2022-11-23T05:11:00.571Z,99707.97
2022-11-23T05:13:26.999Z,99719.06
2022-11-23T05:15:53.462Z,99708.78
2022-11-23T05:18:20.114Z,99707.97
2022-11-23T05:20:46.935Z,99718.69
2022-11-23T05:23:13.509Z,99709.16
2022-11-23T05:25:40.177Z,99712.13
2022-11-23T05:28:23.371Z,99711.44
2022-11-23T05:30:53.887Z,99712.84
2022-11-23T05:33:20.356Z,99714.03
2022-11-23T05:35:46.812Z,99719.25
2022-11-23T05:38:13.268Z,99715.34
2022-11-23T05:40:39.711Z,99714.47
2022-11-23T05:43:06.190Z,99717.38
2022-11-23T05:45:32.627Z,99722.59
2022-11-23T05:47:59.535Z,99712.81
2022-11-23T05:50:28.016Z,99711.78
2022-11-23T05:52:56.886Z,99718.00
2022-11-23T05:55:23.499Z,99719.63
2022-11-23T05:57:49.961Z,99722.13
2022-11-23T06:00:17.048Z,99718.28
2022-11-23T06:02:43.580Z,99716.66
2022-11-23T06:05:10.268Z,99712.50
2022-11-23T06:07:37.036Z,99707.72
2022-11-23T06:10:05.261Z,99710.72
2022-11-23T06:12:32.297Z,99709.66
2022-11-23T06:14:58.719Z,99707.59
2022-11-23T06:17:25.220Z,99709.44
2022-11-23T06:19:51.648Z,99705.09
2022-11-23T06:22:18.113Z,99707.75
2022-11-23T06:24:44.586Z,99704.22
2022-11-23T06:27:15.263Z,99705.06
2022-11-23T06:29:44.267Z,99714.81
2022-11-23T06:32:10.862Z,99719.56
2022-11-23T06:34:37.380Z,99720.31
2022-11-23T06:37:03.877Z,99720.94
2022-11-23T06:39:30.439Z,99719.72
2022-11-23T06:42:10.796Z,99725.88
2022-11-23T06:44:43.580Z,99722.22
2022-11-23T06:47:14.005Z,99729.69
2022-11-23T06:49:43.043Z,99725.91
2022-11-23T06:52:09.507Z,99716.44
2022-11-23T06:54:35.985Z,99724.88
2022-11-23T06:57:02.416Z,99733.56
2022-11-23T06:59:28.886Z,99731.19
2022-11-23T07:01:55.332Z,99735.84
2022-11-23T07:04:21.835Z,99739.19
2022-11-23T07:06:48.257Z,99735.03
2022-11-23T07:09:14.784Z,99734.44
2022-11-23T07:11:41.316Z,99734.06
2022-11-23T07:14:07.773Z,99737.47
2022-11-23T07:16:34.318Z,99739.66
2022-11-23T07:19:00.897Z,99743.84
2022-11-23T07:21:27.361Z,99741.44
2022-11-23T07:23:53.825Z,99747.19
2022-11-23T07:26:20.445Z,99751.09
2022-11-23T07:28:46.957Z,99754.16
2022-11-23T07:31:16.065Z,99745.75
2022-11-23T07:33:46.633Z,99752.63
2022-11-23T07:36:13.502Z,99755.78
2022-11-23T07:38:40.297Z,99764.06
2022-11-23T07:41:06.931Z,99760.53
2022-11-23T07:43:33.415Z,99748.59
2022-11-23T07:45:59.855Z,99752.53
2022-11-23T07:48:28.098Z,99761.34
2022-11-23T07:50:56.146Z,99768.16
2022-11-23T07:53:23.774Z,99761.34
2022-11-23T07:55:50.233Z,99763.47
2022-11-23T07:58:16.696Z,99753.22
2022-11-23T08:00:43.231Z,99763.91
2022-11-23T08:03:29.691Z,99758.56
2022-11-23T08:05:56.583Z,99764.50
2022-11-23T08:08:23.201Z,99765.53
2022-11-23T08:10:53.323Z,99753.41
2022-11-23T08:13:21.158Z,99765.53
2022-11-23T08:15:53.247Z,99763.44
2022-11-23T08:18:20.815Z,99763.56
2022-11-23T08:20:47.329Z,99760.06
2022-11-23T08:23:13.768Z,99754.97
2022-11-23T08:25:40.374Z,99763.69
2022-11-23T08:28:06.903Z,99765.69
2022-11-23T08:30:34.233Z,99769.25
2022-11-23T08:33:07.699Z,99763.34
2022-11-23T08:35:38.556Z,99771.41
2022-11-23T08:38:05.999Z,99764.25
2022-11-23T08:40:33.201Z,99763.91
2022-11-23T08:42:59.637Z,99760.84
2022-11-23T08:45:26.306Z,99766.41
2022-11-23T08:47:53.144Z,99767.84
2022-11-23T08:50:20.142Z,99764.66
2022-11-23T08:52:46.694Z,99771.34
2022-11-23T08:55:13.172Z,99771.31
2022-11-23T08:57:39.623Z,99765.31
2022-11-23T09:00:06.866Z,99771.44
2022-11-23T09:02:33.303Z,99771.59
2022-11-23T09:05:00.709Z,99769.31
2022-11-23T09:07:27.190Z,99762.50
2022-11-23T09:09:53.676Z,99769.06
2022-11-23T09:12:20.095Z,99773.50
2022-11-23T09:14:46.559Z,99768.63
2022-11-23T09:17:13.078Z,99771.25
2022-11-23T09:19:39.554Z,99780.50
2022-11-23T09:22:06.085Z,99782.16
2022-11-23T09:24:32.808Z,99785.56
2022-11-23T09:26:59.625Z,99783.06
2022-11-23T09:29:26.656Z,99779.91
2022-11-23T09:31:53.195Z,99779.72
2022-11-23T09:34:19.672Z,99778.31
2022-11-23T09:36:46.530Z,99779.97
2022-11-23T09:39:13.040Z,99788.63
2022-11-23T09:41:47.072Z,99786.78
2022-11-23T09:44:38.513Z,99780.44
2022-11-23T09:47:35.936Z,99782.09
2022-11-23T09:50:09.282Z,99784.88
2022-11-23T09:52:37.578Z,99777.53
2022-11-23T09:55:34.565Z,99783.44
2022-11-23T09:58:03.911Z,99779.88
2022-11-23T10:00:37.923Z,99794.75
2022-11-23T10:03:04.610Z,99793.34
2022-11-23T10:05:35.799Z,99794.41
2022-11-23T10:08:18.012Z,99788.25
2022-11-23T10:10:53.434Z,99796.91
2022-11-23T10:13:35.341Z,99793.47
2022-11-23T10:16:10.228Z,99803.72
2022-11-23T10:18:57.619Z,99801.97
2022-11-23T10:21:33.978Z,99807.94
2022-11-23T10:24:34.400Z,99805.44
2022-11-23T10:27:01.584Z,99802.97
2022-11-23T10:29:38.044Z,99801.28
2022-11-23T10:32:33.710Z,99800.16
2022-11-23T10:35:13.398Z,99802.19
2022-11-23T10:37:40.646Z,99797.22
2022-11-23T10:40:17.393Z,99796.38
2022-11-23T10:42:51.539Z,99792.78
2022-11-23T10:45:23.549Z,99794.34
2022-11-23T10:48:01.629Z,99790.28
2022-11-23T10:50:30.531Z,99796.38
2022-11-23T10:53:22.595Z,99795.56
2022-11-23T10:56:01.735Z,99799.78
2022-11-23T10:58:44.691Z,99803.25
2022-11-23T11:01:15.321Z,99802.44
2022-11-23T11:03:42.168Z,99811.97
2022-11-23T11:06:10.131Z,99805.72
2022-11-23T11:08:50.038Z,99797.31
2022-11-23T11:11:33.327Z,99799.84
2022-11-23T11:14:05.800Z,99803.25
2022-11-23T11:16:37.055Z,99799.81
2022-11-23T11:19:26.575Z,99804.16
2022-11-23T11:21:53.166Z,99791.19
2022-11-23T11:24:43.895Z,99795.47
2022-11-23T11:27:16.223Z,99798.09
2022-11-23T11:29:45.717Z,99787.75
2022-11-23T11:32:23.716Z,99785.94
2022-11-23T11:35:10.703Z,99782.44
2022-11-23T11:37:40.290Z,99788.53
2022-11-23T11:40:35.387Z,99793.03
2022-11-23T11:43:25.344Z,99799.13
2022-11-23T11:46:27.436Z,99798.28
2022-11-23T11:48:49.538Z,99795.63
2022-11-23T11:51:34.589Z,99799.00
2022-11-23T11:54:19.441Z,99795.47
2022-11-23T11:56:54.409Z,99795.41
2022-11-23T11:59:42.924Z,99806.84
2022-11-23T12:02:27.223Z,99789.63
2022-11-23T12:05:14.384Z,99799.94
2022-11-23T12:07:53.037Z,99797.44
2022-11-23T12:10:51.868Z,99798.25
2022-11-23T12:13:21.745Z,99793.09
2022-11-23T12:16:14.606Z,99798.25
2022-11-23T12:18:50.422Z,99804.38
2022-11-23T12:21:25.823Z,99793.09
2022-11-23T12:24:05.246Z,99803.44
2022-11-23T12:27:24.678Z,99799.09
2022-11-23T12:30:25.637Z,99793.06
2022-11-23T12:33:10.450Z,99792.28
2022-11-23T12:35:56.169Z,99787.94
2022-11-23T12:38:34.692Z,99784.28
2022-11-23T12:41:04.180Z,99793.94
2022-11-23T12:44:03.063Z,99787.88
2022-11-23T12:46:50.403Z,99791.34
2022-11-23T12:49:52.025Z,99791.34
2022-11-23T12:52:18.505Z,99780.06
2022-11-23T12:55:19.651Z,99786.09
2022-11-23T12:57:52.564Z,99788.66
2022-11-23T13:00:23.423Z,99789.47
2022-11-23T13:02:55.955Z,99787.03
2022-11-23T13:05:42.157Z,99793.03
2022-11-23T13:08:24.684Z,99787.91
2022-11-23T13:11:21.582Z,99789.63
2022-11-23T13:14:10.261Z,99783.59
2022-11-23T13:17:27.481Z,99790.50
2022-11-23T13:20:06.247Z,99793.09
2022-11-23T13:22:33.173Z,99787.66
2022-11-23T13:25:18.314Z,99788.72
2022-11-23T13:27:56.215Z,99787.81
2022-11-23T13:30:40.167Z,99787.88
2022-11-23T13:33:18.351Z,99784.41
2022-11-23T13:35:51.635Z,99789.63
2022-11-23T13:38:19.043Z,99790.44
2022-11-23T13:40:46.209Z,99780.94
2022-11-23T13:43:17.194Z,99781.81
2022-11-23T13:45:43.990Z,99777.47
2022-11-23T13:48:19.317Z,99777.41
2022-11-23T13:50:50.887Z,99768.81
2022-11-23T13:53:34.871Z,99783.56
2022-11-23T13:56:21.262Z,99773.03
2022-11-23T13:59:22.569Z,99784.31
2022-11-23T14:02:07.572Z,99776.59
2022-11-23T14:04:41.806Z,99777.41
2022-11-23T14:07:29.935Z,99778.34
2022-11-23T14:10:08.459Z,99784.34
2022-11-23T14:12:47.370Z,99774.66
2022-11-23T14:15:21.865Z,99774.84
2022-11-23T14:18:19.484Z,99773.97
2022-11-23T14:21:10.406Z,99778.34
2022-11-23T14:23:42.680Z,99780.91
2022-11-23T14:26:21.476Z,99780.06
2022-11-23T14:29:12.903Z,99772.28
2022-11-23T14:32:02.559Z,99775.72
2022-11-23T14:34:38.162Z,99773.91
2022-11-23T14:37:23.010Z,99774.78
2022-11-23T14:40:19.400Z,99778.28
2022-11-23T14:42:52.217Z,99785.19
2022-11-23T14:45:20.463Z,99786.97
2022-11-23T14:47:47.031Z,99781.78
2022-11-23T14:50:25.419Z,99791.13
2022-11-23T14:52:54.236Z,99785.13
2022-11-23T14:55:23.055Z,99779.91
2022-11-23T14:57:49.990Z,99786.69
2022-11-23T15:00:31.718Z,99779.81
2022-11-23T15:03:15.381Z,99792.84
2022-11-23T15:05:52.000Z,99792.13
2022-11-23T15:08:24.387Z,99785.84
2022-11-23T15:11:03.423Z,99784.03
2022-11-23T15:13:33.214Z,99785.66
2022-11-23T15:16:03.935Z,99784.94
2022-11-23T15:18:39.596Z,99791.75
2022-11-23T15:21:12.222Z,99786.66
2022-11-23T15:23:42.630Z,99793.66
2022-11-23T15:26:46.138Z,99792.78
2022-11-23T15:29:36.942Z,99791.69
2022-11-23T15:32:35.172Z,99795.41
2022-11-23T15:35:06.908Z,99789.06
2022-11-23T15:37:43.634Z,99792.63
2022-11-23T15:40:15.160Z,99797.84
2022-11-23T15:42:42.204Z,99798.47
2022-11-23T15:45:43.612Z,99800.91
2022-11-23T15:48:26.878Z,99800.06
2022-11-23T15:50:58.610Z,99798.47
2022-11-23T15:53:31.258Z,99803.59
2022-11-23T15:56:05.115Z,99806.38
2022-11-23T15:58:32.718Z,99808.84
2022-11-23T16:01:07.703Z,99808.88
2022-11-23T16:03:40.668Z,99808.13
2022-11-23T16:06:13.149Z,99820.06
2022-11-23T16:08:40.986Z,99821.19
2022-11-23T16:11:22.428Z,99824.53
2022-11-23T16:13:49.080Z,99827.16
2022-11-23T16:16:18.862Z,99824.59
2022-11-23T16:18:52.314Z,99836.75
2022-11-23T16:21:20.091Z,99844.44
2022-11-23T16:23:56.513Z,99841.75
2022-11-23T16:26:31.291Z,99849.88
2022-11-23T16:28:59.183Z,99853.06
2022-11-23T16:31:31.296Z,99847.97
2022-11-23T16:33:57.769Z,99856.63
2022-11-23T16:36:27.201Z,99865.66
2022-11-23T16:38:53.993Z,99861.94
2022-11-23T16:41:20.420Z,99861.75
2022-11-23T16:43:52.404Z,99857.25
2022-11-23T16:46:18.924Z,99866.06
2022-11-23T16:48:45.590Z,99860.56
2022-11-23T16:51:14.474Z,99862.56
2022-11-23T16:54:12.111Z,99869.31
2022-11-23T16:56:29.058Z,99866.56
2022-11-23T16:58:55.906Z,99873.78
2022-11-23T17:01:27.422Z,99871.22
2022-11-23T17:03:54.063Z,99876.38
2022-11-23T17:06:25.055Z,99875.78
2022-11-23T17:08:59.259Z,99877.81
2022-11-23T17:11:28.472Z,99883.16
2022-11-23T17:13:55.934Z,99875.78
2022-11-23T17:16:24.110Z,99889.88
2022-11-23T17:18:50.684Z,99876.19
2022-11-23T17:21:17.434Z,99866.63
2022-11-23T17:23:44.366Z,99879.06
2022-11-23T17:26:27.432Z,99865.00
2022-11-23T17:28:54.453Z,99866.69
2022-11-23T17:31:22.258Z,99876.16
2022-11-23T17:33:49.327Z,99863.78
2022-11-23T17:36:15.812Z,99859.44
2022-11-23T17:38:44.662Z,99854.03
2022-11-23T17:41:11.132Z,99852.78
2022-11-23T17:43:37.608Z,99849.13
2022-11-23T17:46:04.371Z,99846.56
2022-11-23T17:48:30.985Z,99854.81
2022-11-23T17:50:57.435Z,99856.22
2022-11-23T17:53:25.520Z,99863.50
2022-11-23T17:55:52.147Z,99877.97
2022-11-23T17:58:18.965Z,99881.47
2022-11-23T18:00:45.499Z,99876.31
2022-11-23T18:03:12.027Z,99881.78
2022-11-23T18:05:38.582Z,99890.06
2022-11-23T18:08:05.284Z,99885.16
2022-11-23T18:10:31.735Z,99886.28
2022-11-23T18:12:58.321Z,99881.31
2022-11-23T18:15:24.813Z,99890.03
2022-11-23T18:17:51.294Z,99894.44
2022-11-23T18:20:18.032Z,99904.53
2022-11-23T18:22:44.611Z,99901.25
2022-11-23T18:25:11.117Z,99898.56
2022-11-23T18:27:37.663Z,99897.47
2022-11-23T18:30:04.741Z,99901.84
2022-11-23T18:32:31.324Z,99918.97
2022-11-23T18:34:57.904Z,99913.22
2022-11-23T18:37:24.343Z,99919.25
2022-11-23T18:39:50.856Z,99919.75
2022-11-23T18:42:17.764Z,99925.81
2022-11-23T18:44:44.228Z,99925.34
2022-11-23T18:47:10.664Z,99925.53
2022-11-23T18:49:37.139Z,99931.44
2022-11-23T18:52:03.669Z,99925.47
2022-11-23T18:54:30.114Z,99932.38
2022-11-23T18:56:56.617Z,99948.09
2022-11-23T19:02:10.730Z,99948.13
2022-11-23T19:04:38.747Z,99951.56
2022-11-23T19:07:05.524Z,99955.47
2022-11-23T19:09:32.450Z,99949.47
2022-11-23T19:11:59.220Z,99950.94
2022-11-23T19:14:25.689Z,99947.03
2022-11-23T19:16:52.134Z,99956.00
2022-11-23T19:19:18.854Z,99951.09
2022-11-23T19:21:45.366Z,99956.19
2022-11-23T19:24:11.920Z,99955.28
2022-11-23T19:26:38.583Z,99957.25
2022-11-23T19:29:05.236Z,99961.13
2022-11-23T19:31:32.992Z,99966.47
2022-11-23T19:34:01.491Z,99958.63
2022-11-23T19:36:30.369Z,99965.59
2022-11-23T19:38:57.507Z,99963.28
2022-11-23T19:41:29.583Z,99964.63
2022-11-23T19:43:57.737Z,99968.31
2022-11-23T19:46:24.628Z,99961.81
2022-11-23T19:48:51.127Z,99964.53
2022-11-23T19:51:19.387Z,99959.66
2022-11-23T19:53:49.352Z,99962.47
2022-11-23T19:56:21.171Z,99963.09
2022-11-23T19:58:51.727Z,99965.66
2022-11-23T20:01:19.628Z,99967.00
2022-11-23T20:03:48.084Z,99972.47
2022-11-23T20:06:17.184Z,99968.84
2022-11-23T20:08:45.158Z,99970.25
2022-11-23T20:11:17.113Z,99972.78
2022-11-23T20:13:44.096Z,99974.81
2022-11-23T20:16:12.939Z,99962.78
2022-11-23T20:18:40.154Z,99968.66
2022-11-23T20:21:14.578Z,99969.25
2022-11-23T20:23:42.024Z,99971.38
2022-11-23T20:26:10.987Z,99966.81
2022-11-23T20:28:37.466Z,99970.59
2022-11-23T20:31:05.233Z,99972.78
2022-11-23T20:33:32.102Z,99967.88
2022-11-23T20:36:14.623Z,99975.38
2022-11-23T20:38:41.777Z,99977.00
2022-11-23T20:41:15.393Z,99966.13
2022-11-23T20:43:42.664Z,99972.09
2022-11-23T20:46:09.357Z,99969.66
2022-11-23T20:48:36.010Z,99973.06
2022-11-23T20:51:09.057Z,99974.50
2022-11-23T20:53:36.806Z,99985.69
2022-11-23T20:56:11.350Z,99979.03
2022-11-23T20:58:38.136Z,99980.13
2022-11-23T21:01:09.389Z,99981.91
2022-11-23T21:03:37.049Z,99986.63
2022-11-23T21:06:04.983Z,99982.16
2022-11-23T21:08:34.841Z,99980.44
2022-11-23T21:11:29.402Z,99983.53
2022-11-23T21:14:11.208Z,99982.69
2022-11-23T21:16:52.918Z,99998.66
2022-11-23T21:19:21.098Z,99995.66
2022-11-23T21:21:47.642Z,99999.91
2022-11-23T21:24:14.156Z,99994.25
2022-11-23T21:26:40.708Z,99990.31
2022-11-23T21:29:11.402Z,100002.50
2022-11-23T21:31:39.970Z,100003.03
2022-11-23T21:34:10.485Z,100004.06
2022-11-23T21:36:39.197Z,100001.69
2022-11-23T21:39:08.136Z,99996.00
2022-11-23T21:41:34.717Z,100003.34
2022-11-23T21:44:01.367Z,100009.41
2022-11-23T21:46:28.085Z,100002.75
2022-11-23T21:48:56.575Z,100002.56
2022-11-23T21:51:26.733Z,100005.50
2022-11-23T21:53:54.064Z,100005.63
2022-11-23T21:56:20.911Z,100003.09
2022-11-23T21:58:47.638Z,100017.34
2022-11-23T22:01:19.163Z,100022.09
2022-11-23T22:03:47.840Z,100010.41
2022-11-23T22:06:20.161Z,100020.22
2022-11-23T22:08:49.687Z,100022.38
2022-11-23T22:11:30.519Z,100020.66
2022-11-23T22:13:58.947Z,100030.22
2022-11-23T22:16:27.615Z,100020.91
2022-11-23T22:18:57.184Z,100027.19
2022-11-23T22:21:26.523Z,100037.03
2022-11-23T22:23:53.158Z,100036.44
2022-11-23T22:26:20.660Z,100040.56
2022-11-23T22:28:50.544Z,100041.47
2022-11-23T22:31:19.683Z,100038.91
2022-11-23T22:33:47.149Z,100039.34
2022-11-23T22:36:16.901Z,100045.88
2022-11-23T22:38:43.837Z,100040.28
2022-11-23T22:41:16.169Z,100047.78
2022-11-23T22:43:44.321Z,100049.56
2022-11-23T22:46:14.409Z,100054.78
2022-11-23T22:48:43.172Z,100051.19
2022-11-23T22:51:11.852Z,100045.31
2022-11-23T22:53:44.455Z,100047.53
2022-11-23T22:56:20.838Z,100042.00
2022-11-23T22:58:47.903Z,100050.28
2022-11-23T23:01:23.460Z,100053.00
2022-11-23T23:03:55.578Z,100061.88
2022-11-23T23:06:27.043Z,100056.94
2022-11-23T23:08:56.050Z,100061.69
2022-11-23T23:11:23.983Z,100058.16
2022-11-23T23:13:50.879Z,100059.13
2022-11-23T23:16:17.669Z,100058.88
2022-11-23T23:18:44.389Z,100060.19
2022-11-23T23:21:15.558Z,100059.78
2022-11-23T23:23:44.434Z,100051.59
2022-11-23T23:26:12.495Z,100053.56
2022-11-23T23:28:39.543Z,100064.03
2022-11-23T23:31:10.389Z,100063.63
2022-11-23T23:33:37.567Z,100057.06
2022-11-23T23:36:08.133Z,100052.25
2022-11-23T23:38:34.678Z,100059.13
2022-11-23T23:41:01.504Z,100059.97
2022-11-23T23:43:28.852Z,100063.13
2022-11-23T23:46:00.017Z,100063.59
2022-11-23T23:48:31.791Z,100064.31
2022-11-23T23:50:58.262Z,100072.88
2022-11-23T23:53:24.723Z,100076.50
2022-11-23T23:56:01.518Z,100073.25
2022-11-23T23:58:29.533Z,100082.38
